KLNN/LNN METAR and TAF weather

Enter ICAO airport designator
Station Type Date Time Source
KLNN METAR 2020/01/18 12:55 UTC NOAA

KLNN 181255Z AUTO 17014G19KT 2SM OVC011 M02/M04 A3007 RMK AO1 P0005 T10171042


Station Type Date Time Source
KLNN Decoded METAR 2020/01/18 12:55 UTC NOAA

Willoughby, OH, United States (KLNN) 41-41N 081-23W
Jan 18, 2020 - 07:55 AM EST / 2020.01.18 1255 UTC
Wind: from the S (170 degrees) at 16 MPH (14 KT) gusting to 22 MPH (19 KT):0
Visibility: 2 mile(s):0
Sky conditions: overcast
Precipitation last hour: 0.05 inches
Temperature: 28.9 F (-1.7 C)
Windchill: 17 F (-8 C):1
Dew Point: 24.4 F (-4.2 C)
Relative Humidity: 83%
Pressure (altimeter): 30.07 in. Hg (1018 hPa)
ob: KLNN 181255Z AUTO 17014G19KT 2SM OVC011 M02/M04 A3007 RMK AO1 P0005 T10171042
cycle: 13

Station Type Date Time Source
KLNN TAF UTC NOAA

Error!

Example: see airport list